Pagrindinis puslapis
METAR-TAF:

METAR-TAF

Oro uostai :

Giddings-Lee County Airport

Giddings, Teksasas, Jungtinės Amerikos Valstijos

platuma: 30-10-09N, ilguma: 096-58-48W, Aukštis: 148 m

Dabartinis oras

Ataskaita buvo paskelbta 32 minutes, ne 11:15 UTC
Vėjas 3 kt iš Šiaurės/Šiaurės Vakarų
Temperatūra 21°C
Drėgmė 88%
Slėgis 1018 hPa
Matomumas: 16.1 km
Giedras dangus

METAR: KGYB 291115Z AUTO 34003KT 10SM CLR 21/19 A3005 RMK AO2 T02060188

Laikas: 06:47 (11:47 UTC)


TAF: trūkstamas

Orai ataskaitas ir orų prognozės (METAR, TAF).

turimą stotys yra geltonos ir raudonos taškus žemėlapyje.

Perkelti pele per norėdami pamatyti stoties vardą.

Tada spustelėkite, norėdami matyti oro stebėjimo ir prognozės.

Norėdami pakeisti žemėlapį: spustelėkite ant žalios mygtukų su juodo kryžiaus žemyn,; žalią mygtuką su brūkšneliu, jei norite nutolinti; arba žalių rodyklių gretimoms žemėlapius.


METAR-TAF: